Time;durP1;ratioP1;P1;durP2;ratioP2;P2;SDS_P1;SDS_P2;PMS_P1;PMS_P2;Temp;Humidity;BMP_temperature;BMP_pressure;BME280_temperature;BME280_humidity;BME280_pressure;Samples;Min_cycle;Max_cycle;Signal;HPM_P1;HPM_P2
2020/12/10 00:01:21;;;;;;;10.88;6.05;;;7.70;68.20;;;;;;5011241;28;20037;-82
2020/12/10 00:03:47;;;;;;;;;;;7.70;68.20;;;;;;5011990;28;20057;-82
2020/12/10 00:06:12;;;;;;;9.82;5.50;;;7.70;70.50;;;;;;5012633;28;19909;-83
2020/12/10 00:08:38;;;;;;;;;;;7.40;74.10;;;;;;5014789;28;20030;-83
2020/12/10 00:11:03;;;;;;;9.02;4.68;;;7.20;75.90;;;;;;5013545;28;19912;-82
2020/12/10 00:13:29;;;;;;;;;;;7.00;77.70;;;;;;5012038;28;20042;-82
2020/12/10 00:15:55;;;;;;;8.32;4.85;;;6.80;79.40;;;;;;5013950;28;19912;-83
2020/12/10 00:18:20;;;;;;;9.55;5.13;;;6.60;80.60;;;;;;5012438;28;20030;-83
2020/12/10 00:20:46;;;;;;;;;;;6.50;82.30;;;;;;5012755;28;20112;-83
2020/12/10 00:23:11;;;;;;;9.82;5.72;;;6.40;82.50;;;;;;5012325;28;20324;-84
2020/12/10 00:25:37;;;;;;;10.77;5.22;;;6.30;83.40;;;;;;5012411;28;20033;-82
2020/12/10 00:28:02;;;;;;;;;;;6.30;83.50;;;;;;5012911;28;20029;-83
2020/12/10 00:30:28;;;;;;;9.48;5.10;;;6.30;83.40;;;;;;5011835;28;19932;-83
2020/12/10 00:32:53;;;;;;;;;;;6.20;83.00;;;;;;5012742;28;20048;-83
2020/12/10 00:35:19;;;;;;;10.52;5.68;;;6.30;82.90;;;;;;5013309;28;20286;-83
2020/12/10 00:37:44;;;;;;;;;;;6.30;82.60;;;;;;5012331;28;20022;-82
2020/12/10 00:40:10;;;;;;;14.65;7.90;;;6.30;81.80;;;;;;5011954;28;19912;-81
2020/12/10 00:42:36;;;;;;;;;;;6.30;81.30;;;;;;5011115;28;20038;-80
2020/12/10 00:45:03;;;;;;;9.07;5.22;;;6.30;81.60;;;;;;5010024;28;20425;-79
2020/12/10 00:47:28;;;;;;;11.73;7.15;;;6.30;81.50;;;;;;5010318;28;20437;-79
2020/12/10 00:49:54;;;;;;;;;;;6.30;80.80;;;;;;5010293;28;20037;-80
2020/12/10 00:52:24;;;;;;;9.07;5.55;;;6.30;81.00;;;;;;5010087;28;20004;-79
2020/12/10 00:54:50;;;;;;;10.02;5.53;;;6.30;80.90;;;;;;5009782;28;20414;-79
2020/12/10 00:57:15;;;;;;;;;;;6.30;80.40;;;;;;5009930;28;20057;-80
2020/12/10 00:59:41;;;;;;;9.90;5.07;;;6.30;80.50;;;;;;5011125;28;19906;-79
2020/12/10 01:02:07;;;;;;;8.52;5.22;;;6.30;80.80;;;;;;5009689;28;20018;-79
2020/12/10 01:04:33;;;;;;;10.25;6.20;;;6.30;81.40;;;;;;5009692;28;20091;-79
2020/12/10 01:06:59;;;;;;;;;;;6.20;81.70;;;;;;5011303;28;20029;-79
2020/12/10 01:09:24;;;;;;;9.68;5.97;;;6.20;82.30;;;;;;5010897;28;20347;-79
2020/12/10 01:11:50;;;;;;;9.10;5.63;;;6.10;82.50;;;;;;5010852;28;20038;-79
2020/12/10 01:14:18;;;;;;;10.00;5.03;;;6.10;82.50;;;;;;5009128;28;20038;-79
2020/12/10 01:16:44;;;;;;;14.30;5.45;;;6.10;83.40;;;;;;5010859;28;20104;-79
2020/12/10 01:19:10;;;;;;;9.20;5.00;;;6.00;83.60;;;;;;5010643;28;20041;-78
2020/12/10 01:21:35;;;;;;;;;;;6.00;84.90;;;;;;5009684;28;20030;-79
2020/12/10 01:24:03;;;;;;;9.43;5.10;;;5.90;85.30;;;;;;5009200;28;19984;-77
2020/12/10 01:26:31;;;;;;;9.25;5.45;;;5.90;85.90;;;;;;5009402;28;20026;-78
2020/12/10 01:28:57;;;;;;;11.30;5.40;;;5.80;85.90;;;;;;5009239;28;20030;-78
2020/12/10 01:31:23;;;;;;;;;;;5.80;86.80;;;;;;5010725;28;20029;-78
2020/12/10 01:33:49;;;;;;;11.20;6.05;;;5.70;87.00;;;;;;5009658;28;20032;-81
2020/12/10 01:36:18;;;;;;;;;;;5.70;87.80;;;;;;5010551;28;20112;-80
2020/12/10 01:38:44;;;;;;;14.73;6.88;;;5.60;88.30;;;;;;5009381;28;20589;-80
2020/12/10 01:41:10;;;;;;;;;;;5.60;89.70;;;;;;5011029;28;20060;-81
2020/12/10 01:43:35;;;;;;;9.32;5.85;;;5.50;90.30;;;;;;5009440;28;19910;-80
2020/12/10 01:46:01;;;;;;;;;;;5.50;90.40;;;;;;5009886;28;20088;-80
2020/12/10 01:48:27;;;;;;;10.77;6.68;;;5.40;91.00;;;;;;5009848;28;19905;-81
2020/12/10 01:50:52;;;;;;;;;;;5.40;91.00;;;;;;5009687;28;20026;-80
2020/12/10 01:53:18;;;;;;;12.75;7.28;;;5.40;91.80;;;;;;5009059;28;19913;-80
2020/12/10 01:55:45;;;;;;;;;;;5.30;91.70;;;;;;5010611;28;20071;-80
2020/12/10 01:58:10;;;;;;;12.57;7.90;;;5.30;92.40;;;;;;5008652;28;19936;-80
2020/12/10 02:00:36;;;;;;;;;;;5.30;92.60;;;;;;5010669;28;20034;-80
2020/12/10 02:03:01;;;;;;;11.65;7.30;;;5.30;93.00;;;;;;5009019;28;20289;-79
2020/12/10 02:05:27;;;;;;;;;;;5.30;93.20;;;;;;5010637;28;20018;-81
2020/12/10 02:07:52;;;;;;;13.18;7.85;;;5.30;93.40;;;;;;5009045;28;20377;-81
2020/12/10 02:10:18;;;;;;;;;;;5.20;93.30;;;;;;5009497;28;20034;-81
2020/12/10 02:12:43;;;;;;;11.25;7.30;;;5.20;93.50;;;;;;5010177;28;19952;-80
2020/12/10 02:15:09;;;;;;;;;;;5.20;93.80;;;;;;5009376;28;20065;-80
2020/12/10 02:17:36;;;;;;;10.93;6.63;;;5.20;93.50;;;;;;5010286;28;19909;-80
2020/12/10 02:20:04;;;;;;;14.63;7.22;;;5.20;93.30;;;;;;5009049;28;20498;-80
2020/12/10 02:22:30;;;;;;;16.02;8.05;;;5.20;93.30;;;;;;5010203;28;20030;-80
2020/12/10 02:24:56;;;;;;;;;;;5.20;93.20;;;;;;5009915;28;20038;-80
2020/12/10 02:27:21;;;;;;;11.13;6.88;;;5.20;93.20;;;;;;5012732;28;20376;-80
2020/12/10 02:29:47;;;;;;;;;;;5.20;93.20;;;;;;5013147;28;20076;-80
2020/12/10 02:32:12;;;;;;;11.48;7.10;;;5.20;93.30;;;;;;5012417;28;20016;-79
2020/12/10 02:34:38;;;;;;;10.45;5.78;;;5.20;92.90;;;;;;5012492;28;20041;-79
2020/12/10 02:37:04;;;;;;;;;;;5.20;92.70;;;;;;5012727;28;20581;-79
2020/12/10 02:39:29;;;;;;;11.98;7.03;;;5.20;92.70;;;;;;5012768;28;19920;-79
2020/12/10 02:41:55;;;;;;;12.23;6.32;;;5.10;92.70;;;;;;5012518;28;20060;-79
2020/12/10 02:44:20;;;;;;;12.93;6.32;;;5.10;92.80;;;;;;5012857;28;20069;-80
2020/12/10 02:46:46;;;;;;;;;;;5.10;93.10;;;;;;5013808;28;20025;-79
2020/12/10 02:49:11;;;;;;;11.65;7.43;;;5.10;93.20;;;;;;5011910;28;19963;-79
2020/12/10 02:51:41;;;;;;;;;;;5.10;93.30;;;;;;5012287;28;20030;-79
2020/12/10 02:54:07;;;;;;;11.27;6.88;;;5.10;93.70;;;;;;5013377;28;19943;-80
2020/12/10 02:56:32;;;;;;;;;;;5.10;93.80;;;;;;5012440;28;20398;-79
2020/12/10 02:58:58;;;;;;;12.27;6.50;;;5.10;93.90;;;;;;5012015;28;19916;-80
2020/12/10 03:01:23;;;;;;;12.55;5.78;;;5.10;94.00;;;;;;5013348;28;20506;-79
2020/12/10 03:03:49;;;;;;;11.48;7.25;;;5.20;94.10;;;;;;5012114;28;20498;-80
2020/12/10 03:06:14;;;;;;;;;;;5.30;94.20;;;;;;5012478;28;20037;-80
2020/12/10 03:08:41;;;;;;;22.77;12.02;;;5.30;94.30;;;;;;5013117;28;19909;-80
2020/12/10 03:11:06;;;;;;;17.05;10.63;;;5.30;94.40;;;;;;5011913;28;20026;-80
2020/12/10 03:13:32;;;;;;;;;;;5.30;94.40;;;;;;5012308;28;20034;-80
2020/12/10 03:15:57;;;;;;;19.05;10.13;;;5.30;94.40;;;;;;5012240;28;20248;-81
2020/12/10 03:18:25;;;;;;;13.95;8.90;;;5.30;94.50;;;;;;5011947;28;20126;-79
2020/12/10 03:20:53;;;;;;;12.50;8.05;;;5.30;94.60;;;;;;5011835;28;20563;-80
2020/12/10 03:23:19;;;;;;;20.90;9.38;;;5.30;94.50;;;;;;5012177;28;20453;-81
2020/12/10 03:25:45;;;;;;;;;;;5.30;94.50;;;;;;5012333;28;20477;-81
2020/12/10 03:28:10;;;;;;;11.75;6.45;;;5.30;94.50;;;;;;5011522;28;20063;-80
2020/12/10 03:30:36;;;;;;;;;;;5.30;94.50;;;;;;5011921;28;20038;-80
2020/12/10 03:33:01;;;;;;;12.80;6.63;;;5.30;94.50;;;;;;5012704;28;19929;-80
2020/12/10 03:35:27;;;;;;;;;;;5.30;94.40;;;;;;5011602;28;20037;-81
2020/12/10 03:37:53;;;;;;;8.55;5.15;;;5.30;94.20;;;;;;5012123;28;19916;-79
2020/12/10 03:40:18;;;;;;;;;;;5.30;94.20;;;;;;5011645;28;20034;-79
2020/12/10 03:42:44;;;;;;;12.65;4.97;;;5.40;94.20;;;;;;5012637;28;19917;-80
2020/12/10 03:45:10;;;;;;;;;;;5.40;94.20;;;;;;5012914;28;20037;-80
2020/12/10 03:47:36;;;;;;;8.38;4.72;;;5.40;94.20;;;;;;5012515;28;19905;-81
2020/12/10 03:50:03;;;;;;;10.88;5.80;;;5.40;94.30;;;;;;5011238;28;20482;-80
2020/12/10 03:52:28;;;;;;;10.95;5.70;;;5.40;94.40;;;;;;5012369;28;20037;-80
2020/12/10 03:54:54;;;;;;;;;;;5.40;94.50;;;;;;5011329;28;20040;-80
2020/12/10 03:57:19;;;;;;;12.43;5.95;;;5.40;94.60;;;;;;5010802;28;19925;-80
2020/12/10 03:59:45;;;;;;;;;;;5.40;94.70;;;;;;5012853;28;20033;-80
2020/12/10 04:02:10;;;;;;;13.57;6.93;;;5.40;94.90;;;;;;5013505;28;20388;-79
2020/12/10 04:04:36;;;;;;;;;;;5.30;95.20;;;;;;5011515;28;20080;-81
2020/12/10 04:07:02;;;;;;;11.38;5.70;;;5.30;95.00;;;;;;5011084;28;19955;-81
2020/12/10 04:09:27;;;;;;;;;;;5.40;95.10;;;;;;5011406;28;20033;-81
2020/12/10 04:11:53;;;;;;;9.02;4.68;;;5.40;95.30;;;;;;5010567;28;20000;-82
2020/12/10 04:14:18;;;;;;;;;;;5.40;95.30;;;;;;5012450;28;20097;-82
2020/12/10 04:16:44;;;;;;;10.55;5.28;;;5.50;95.40;;;;;;5010821;28;20024;-82
2020/12/10 04:19:09;;;;;;;;;;;5.60;95.50;;;;;;5012120;28;20033;-82
2020/12/10 04:21:35;;;;;;;9.07;5.40;;;5.60;95.40;;;;;;5011808;28;20000;-82
2020/12/10 04:24:00;;;;;;;;;;;5.60;95.70;;;;;;5010736;28;20441;-82
2020/12/10 04:26:26;;;;;;;23.85;15.00;;;5.60;95.30;;;;;;5010384;28;19910;-82
2020/12/10 04:28:51;;;;;;;;;;;5.60;95.30;;;;;;5010632;28;20446;-82
2020/12/10 04:31:17;;;;;;;14.05;8.00;;;5.60;95.20;;;;;;5010833;28;19906;-83
2020/12/10 04:33:43;;;;;;;;;;;5.50;95.10;;;;;;5010482;28;20030;-82
2020/12/10 04:36:09;;;;;;;16.38;8.48;;;5.50;95.10;;;;;;5011564;28;19949;-82
2020/12/10 04:38:34;;;;;;;;;;;5.40;95.10;;;;;;5010860;28;20030;-82
2020/12/10 04:41:05;;;;;;;18.65;9.40;;;5.40;95.20;;;;;;5011483;28;20356;-82
2020/12/10 04:43:30;;;;;;;20.63;8.98;;;5.30;95.20;;;;;;5010149;28;20127;-82
2020/12/10 04:45:57;;;;;;;;;;;5.30;95.30;;;;;;5012014;28;20514;-83
2020/12/10 04:48:34;;;;;;;12.23;7.95;;;5.20;95.30;;;;;;5011008;28;19909;-82
2020/12/10 04:51:04;;;;;;;14.38;8.57;;;5.20;95.30;;;;;;5010324;28;20041;-82
2020/12/10 04:53:30;;;;;;;12.82;8.40;;;5.20;95.30;;;;;;5011067;28;20053;-82
2020/12/10 04:56:06;;;;;;;;;;;5.20;95.30;;;;;;5011437;28;20095;-83
2020/12/10 04:58:32;;;;;;;15.05;8.95;;;5.20;95.40;;;;;;5009545;28;20431;-83
2020/12/10 05:01:02;;;;;;;18.63;9.27;;;5.20;95.40;;;;;;5009576;28;20061;-82
2020/12/10 05:03:29;;;;;;;13.88;9.20;;;5.20;95.30;;;;;;5010742;28;20761;-82
2020/12/10 05:06:10;;;;;;;18.50;9.90;;;5.20;95.30;;;;;;5009347;28;20029;-81
2020/12/10 05:08:36;;;;;;;19.38;10.35;;;5.10;95.30;;;;;;5009983;28;20474;-82
2020/12/10 05:11:02;;;;;;;13.35;9.50;;;5.10;95.40;;;;;;5009681;28;20068;-82
2020/12/10 05:13:28;;;;;;;;;;;5.10;95.20;;;;;;5010083;28;20457;-82
2020/12/10 05:15:54;;;;;;;16.27;9.65;;;5.10;95.20;;;;;;5010955;28;20400;-83
2020/12/10 05:18:19;;;;;;;;;;;5.00;95.20;;;;;;5010199;28;20371;-82
2020/12/10 05:20:55;;;;;;;21.52;12.52;;;5.00;95.20;;;;;;5009535;28;20385;-80
2020/12/10 05:23:37;;;;;;;33.00;20.42;;;5.00;95.20;;;;;;5009386;28;20112;-82
2020/12/10 05:26:04;;;;;;;15.63;10.70;;;5.00;95.30;;;;;;5009708;28;20032;-83
2020/12/10 05:28:47;;;;;;;18.42;12.07;;;4.90;95.20;;;;;;5009442;28;20034;-82
2020/12/10 05:31:18;;;;;;;26.40;15.93;;;4.90;95.30;;;;;;5009655;28;20410;-82
2020/12/10 05:34:00;;;;;;;21.85;13.80;;;4.90;95.30;;;;;;5009161;28;20576;-82
2020/12/10 05:36:32;;;;;;;24.52;14.05;;;4.80;95.20;;;;;;5009621;28;20029;-83
2020/12/10 05:39:04;;;;;;;26.67;13.40;;;4.80;95.30;;;;;;5009507;28;20065;-80
2020/12/10 05:41:33;;;;;;;24.35;13.20;;;4.80;95.40;;;;;;5009735;28;20044;-80
2020/12/10 05:44:20;;;;;;;31.38;16.23;;;4.80;95.40;;;;;;5009724;28;20034;-80
2020/12/10 05:46:53;;;;;;;22.73;14.35;;;4.80;95.40;;;;;;5009433;28;20026;-80
2020/12/10 05:49:19;;;;;;;35.92;19.73;;;4.70;95.40;;;;;;5009292;28;20038;-80
2020/12/10 05:51:46;;;;;;;;;;;4.80;95.50;;;;;;5009755;28;20028;-81
2020/12/10 05:54:14;;;;;;;23.17;13.35;;;4.80;95.60;;;;;;5009325;28;19913;-81
2020/12/10 05:57:03;;;;;;;26.58;15.80;;;4.70;95.60;;;;;;5009446;28;20070;-80
2020/12/10 05:59:30;;;;;;;31.42;18.17;;;4.70;95.50;;;;;;5009765;28;20032;-81
2020/12/10 06:01:58;;;;;;;25.13;16.10;;;4.70;95.50;;;;;;5015122;28;20109;-80
2020/12/10 06:04:24;;;;;;;26.52;16.33;;;4.70;95.40;;;;;;5013438;28;20030;-81
2020/12/10 06:06:51;;;;;;;26.83;14.80;;;4.60;95.40;;;;;;5013796;28;20153;-81
2020/12/10 06:09:19;;;;;;;31.77;17.95;;;4.60;95.50;;;;;;5013750;28;20033;-81
2020/12/10 06:11:45;;;;;;;28.42;16.27;;;4.60;95.50;;;;;;5013755;28;20030;-80
2020/12/10 06:14:11;;;;;;;28.52;17.17;;;4.60;95.60;;;;;;5013695;28;20490;-81
2020/12/10 06:16:37;;;;;;;;;;;4.60;95.60;;;;;;5014404;28;20113;-82
2020/12/10 06:19:05;;;;;;;25.90;16.45;;;4.60;95.60;;;;;;5014502;28;19905;-80
2020/12/10 06:21:32;;;;;;;26.17;15.93;;;4.50;95.70;;;;;;5013321;28;20034;-80
2020/12/10 06:23:57;;;;;;;23.65;15.05;;;4.50;95.70;;;;;;5014528;28;20026;-81
2020/12/10 06:26:23;;;;;;;;;;;4.50;95.70;;;;;;5013813;28;20137;-81
2020/12/10 06:28:49;;;;;;;18.38;12.23;;;4.50;95.70;;;;;;5013078;28;20377;-81
2020/12/10 06:31:14;;;;;;;21.38;11.73;;;4.50;95.70;;;;;;5013166;28;20034;-81
2020/12/10 06:33:41;;;;;;;;;;;4.50;95.80;;;;;;5013451;28;20437;-81
2020/12/10 06:36:26;;;;;;;17.25;11.35;;;4.50;95.80;;;;;;5014368;28;19945;-81
2020/12/10 06:38:56;;;;;;;22.88;15.05;;;4.50;96.10;;;;;;5013304;28;20561;-81
2020/12/10 06:41:23;;;;;;;25.73;14.75;;;4.50;95.80;;;;;;5013295;28;20022;-81
2020/12/10 06:43:49;;;;;;;23.95;13.35;;;4.60;95.90;;;;;;5014446;28;20053;-81
2020/12/10 06:46:15;;;;;;;;;;;4.60;95.90;;;;;;5013523;28;20471;-81
2020/12/10 06:48:46;;;;;;;17.92;9.65;;;4.60;95.90;;;;;;5014792;28;19913;-80
2020/12/10 06:51:12;;;;;;;16.10;10.25;;;4.60;95.90;;;;;;5013446;28;20529;-81
2020/12/10 06:53:38;;;;;;;17.70;11.48;;;4.60;95.80;;;;;;5014418;28;20445;-82
2020/12/10 06:56:07;;;;;;;;;;;4.70;95.90;;;;;;5013742;28;20026;-81
2020/12/10 06:58:39;;;;;;;26.05;16.75;;;4.70;95.80;;;;;;5013164;28;19917;-81
2020/12/10 07:01:25;;;;;;;21.60;14.80;;;4.60;95.80;;;;;;5013335;28;20026;-81
2020/12/10 07:03:56;;;;;;;26.20;16.55;;;4.60;95.80;;;;;;5013106;28;20089;-81
2020/12/10 07:06:22;;;;;;;59.05;29.33;;;4.60;95.80;;;;;;5014580;28;20034;-82
2020/12/10 07:09:02;;;;;;;;;;;4.70;95.80;;;;;;5013925;28;20014;-82
2020/12/10 07:11:35;;;;;;;102.65;51.35;;;4.70;95.80;;;;;;5012546;28;19909;-80
2020/12/10 07:14:02;;;;;;;98.05;45.70;;;4.70;95.80;;;;;;5013105;28;20053;-80
2020/12/10 07:16:31;;;;;;;41.53;28.08;;;4.70;95.90;;;;;;5013153;28;20022;-81
2020/12/10 07:18:58;;;;;;;50.38;35.53;;;4.70;95.90;;;;;;5012728;28;20395;-82
2020/12/10 07:21:24;;;;;;;39.03;27.13;;;4.70;95.90;;;;;;5013275;28;20022;-81
2020/12/10 07:23:50;;;;;;;;;;;4.70;95.90;;;;;;5013209;28;20065;-81
2020/12/10 07:26:16;;;;;;;40.95;27.17;;;4.70;95.90;;;;;;5012829;28;20051;-82
2020/12/10 07:28:42;;;;;;;26.10;16.13;;;4.70;95.90;;;;;;5012784;28;20489;-81
2020/12/10 07:31:17;;;;;;;;;;;4.70;95.90;;;;;;5013120;28;20030;-82
2020/12/10 07:33:44;;;;;;;25.27;16.30;;;4.60;95.80;;;;;;5012584;28;20002;-81
2020/12/10 07:36:09;;;;;;;31.08;18.27;;;4.60;95.80;;;;;;5013899;28;20033;-82
2020/12/10 07:38:35;;;;;;;;;;;4.60;95.80;;;;;;5012962;28;20030;-81
2020/12/10 07:41:01;;;;;;;40.95;20.67;;;4.50;95.80;;;;;;5012038;28;20325;-81
2020/12/10 07:43:26;;;;;;;;;;;4.50;95.80;;;;;;5011911;28;20041;-81
2020/12/10 07:45:53;;;;;;;64.65;30.15;;;4.50;95.80;;;;;;5011542;28;19909;-81
2020/12/10 07:48:19;;;;;;;63.10;30.30;;;4.50;95.90;;;;;;5011510;28;20034;-81
2020/12/10 07:50:45;;;;;;;;;;;4.40;95.90;;;;;;5012290;28;20629;-81
2020/12/10 07:53:11;;;;;;;75.47;33.40;;;4.40;95.90;;;;;;5012795;28;19920;-81
2020/12/10 07:55:43;;;;;;;;;;;4.30;96.00;;;;;;5013333;28;20026;-81
2020/12/10 07:58:23;;;;;;;54.97;28.85;;;4.30;96.10;;;;;;5013035;28;20004;-81
2020/12/10 08:00:48;;;;;;;67.32;31.33;;;4.30;96.10;;;;;;5013078;28;20045;-81
2020/12/10 08:03:24;;;;;;;;;;;4.30;96.20;;;;;;5011786;28;20474;-81
2020/12/10 08:06:10;;;;;;;56.00;27.42;;;4.30;96.20;;;;;;5011825;28;20063;-82
2020/12/10 08:08:39;;;;;;;72.80;32.20;;;4.20;96.10;;;;;;5011905;28;20049;-82
2020/12/10 08:11:14;;;;;;;64.22;26.40;;;4.20;96.10;;;;;;5012847;28;20352;-81
2020/12/10 08:14:00;;;;;;;52.60;26.15;;;4.20;96.10;;;;;;5011609;28;20046;-82
2020/12/10 08:16:43;;;;;;;59.40;28.25;;;4.20;96.00;;;;;;5011803;28;20038;-82
2020/12/10 08:19:16;;;;;;;63.67;26.42;;;4.10;95.90;;;;;;5012141;28;20096;-82
2020/12/10 08:21:43;;;;;;;61.95;24.13;;;4.10;95.90;;;;;;5013264;28;20033;-82
2020/12/10 08:24:09;;;;;;;72.07;28.73;;;4.10;95.90;;;;;;5011149;28;20021;-81
2020/12/10 08:26:35;;;;;;;;;;;4.10;95.90;;;;;;5012170;28;20407;-82
2020/12/10 08:29:00;;;;;;;73.82;26.70;;;4.00;95.80;;;;;;5011987;28;19959;-81
2020/12/10 08:31:27;;;;;;;;;;;3.90;95.50;;;;;;5013494;28;20026;-81
2020/12/10 08:33:53;;;;;;;148.05;68.30;;;3.90;95.60;;;;;;5011822;28;20370;-82
2020/12/10 08:36:29;;;;;;;;;;;3.70;95.60;;;;;;5013613;28;20053;-82
2020/12/10 08:38:56;;;;;;;114.20;39.63;;;3.80;95.80;;;;;;5012038;28;19905;-82
2020/12/10 08:41:27;;;;;;;111.00;44.38;;;3.80;95.90;;;;;;5011629;28;20030;-82
2020/12/10 08:44:07;;;;;;;105.90;37.80;;;3.80;95.90;;;;;;5011962;28;20026;-82
2020/12/10 08:46:35;;;;;;;112.80;41.55;;;3.80;95.90;;;;;;5012042;28;20033;-82
2020/12/10 08:49:21;;;;;;;106.80;35.03;;;3.80;95.90;;;;;;5013122;28;20037;-82
2020/12/10 08:51:49;;;;;;;116.30;39.97;;;3.80;95.90;;;;;;5011661;28;20030;-82
2020/12/10 08:54:15;;;;;;;135.70;55.45;;;3.80;95.90;;;;;;5011573;28;20034;-82
2020/12/10 08:56:41;;;;;;;139.40;41.17;;;3.80;95.90;;;;;;5011567;28;20032;-82
2020/12/10 08:59:08;;;;;;;115.43;43.25;;;3.80;95.90;;;;;;5011441;28;20026;-82
2020/12/10 09:01:35;;;;;;;145.82;51.05;;;3.80;95.90;;;;;;5011722;28;20022;-81
2020/12/10 09:04:01;;;;;;;158.15;59.83;;;3.80;95.90;;;;;;5011616;28;20125;-81
2020/12/10 09:06:35;;;;;;;136.52;50.90;;;3.80;96.00;;;;;;5011565;28;20060;-83
2020/12/10 09:09:00;;;;;;;116.00;43.53;;;3.80;96.00;;;;;;5011430;28;20041;-82
2020/12/10 09:11:26;;;;;;;;;;;3.80;95.90;;;;;;5011830;28;20030;-82
2020/12/10 09:13:52;;;;;;;100.45;34.28;;;3.70;95.90;;;;;;5012605;28;19968;-82
2020/12/10 09:16:17;;;;;;;;;;;3.70;95.90;;;;;;5011415;28;20018;-82
2020/12/10 09:18:43;;;;;;;98.70;37.63;;;3.70;95.80;;;;;;5011039;28;19906;-81
2020/12/10 09:21:09;;;;;;;;;;;3.70;95.70;;;;;;5011681;28;20080;-81
2020/12/10 09:23:43;;;;;;;100.57;48.08;;;3.70;95.50;;;;;;5011226;28;20011;-82
2020/12/10 09:26:09;;;;;;;101.07;45.53;;;3.60;95.40;;;;;;5010976;28;20034;-82
2020/12/10 09:28:35;;;;;;;57.67;28.65;;;3.60;95.40;;;;;;5010990;28;20083;-82
2020/12/10 09:31:01;;;;;;;;;;;3.60;95.40;;;;;;5011650;28;20030;-82
2020/12/10 09:33:26;;;;;;;99.55;43.38;;;3.60;95.30;;;;;;5011130;28;20382;-82
2020/12/10 09:35:52;;;;;;;;;;;3.60;95.40;;;;;;5011495;28;20068;-82
2020/12/10 09:38:17;;;;;;;106.35;43.90;;;3.60;95.40;;;;;;5012068;28;20046;-82
2020/12/10 09:40:43;;;;;;;;;;;3.60;95.50;;;;;;5012642;28;20033;-82
2020/12/10 09:43:08;;;;;;;105.03;39.40;;;3.60;95.40;;;;;;5011332;28;19909;-83
2020/12/10 09:45:34;;;;;;;;;;;3.60;95.50;;;;;;5010042;28;20030;-82
2020/12/10 09:48:01;;;;;;;107.18;46.92;;;3.60;95.60;;;;;;5011025;28;19905;-83
2020/12/10 09:50:37;;;;;;;135.98;60.92;;;3.60;95.50;;;;;;5010797;28;20036;-83
2020/12/10 09:56:09;;;;;;;127.40;58.28;;;3.60;95.60;;;;;;5012007;28;20030;-83
2020/12/10 09:58:30;;;;;;;115.63;50.33;;;3.60;95.60;;;;;;5011826;28;20069;-81
2020/12/10 10:00:55;;;;;;;;;;;3.70;95.70;;;;;;5011279;28;20087;-82
2020/12/10 10:03:21;;;;;;;96.45;42.95;;;3.60;95.80;;;;;;5010858;28;19910;-82
2020/12/10 10:05:46;;;;;;;;;;;3.70;95.60;;;;;;5011160;28;20022;-82
2020/12/10 10:08:12;;;;;;;98.00;52.30;;;3.70;95.70;;;;;;5010669;28;20389;-82
2020/12/10 10:10:38;;;;;;;;;;;3.70;95.90;;;;;;5010927;28;20034;-83
2020/12/10 10:13:04;;;;;;;71.53;32.30;;;3.70;95.50;;;;;;5010301;28;20389;-82
2020/12/10 10:15:30;;;;;;;;;;;3.70;95.50;;;;;;5011129;28;20502;-83
2020/12/10 10:17:56;;;;;;;57.95;30.17;;;3.70;95.50;;;;;;5010933;28;19916;-82
2020/12/10 10:20:21;;;;;;;;;;;3.70;95.40;;;;;;5011029;28;20038;-83
2020/12/10 10:22:47;;;;;;;70.93;39.90;;;3.70;95.40;;;;;;5009814;28;20262;-83
2020/12/10 10:25:13;;;;;;;;;;;3.60;95.30;;;;;;5010161;28;20014;-82
2020/12/10 10:27:39;;;;;;;84.32;36.92;;;3.60;95.20;;;;;;5009703;28;19910;-82
2020/12/10 10:30:05;;;;;;;;;;;3.60;95.10;;;;;;5010105;28;20080;-82
2020/12/10 10:32:31;;;;;;;107.80;36.70;;;3.50;95.10;;;;;;5010138;28;20405;-82
2020/12/10 10:34:56;;;;;;;;;;;3.50;95.20;;;;;;5010999;28;20061;-83
2020/12/10 10:37:22;;;;;;;108.18;40.30;;;3.40;95.20;;;;;;5010531;28;19905;-82
2020/12/10 10:39:47;;;;;;;;;;;3.50;95.40;;;;;;5011177;28;20045;-82
2020/12/10 10:42:13;;;;;;;133.18;49.08;;;3.50;95.30;;;;;;5010573;28;19952;-82
2020/12/10 10:44:39;;;;;;;;;;;3.50;95.50;;;;;;5011053;28;20026;-82
2020/12/10 10:47:04;;;;;;;107.05;43.03;;;3.50;95.50;;;;;;5012717;28;19909;-83
2020/12/10 10:49:30;;;;;;;;;;;3.50;95.50;;;;;;5014516;28;20065;-82
2020/12/10 10:51:55;;;;;;;84.85;36.47;;;3.50;95.50;;;;;;5014064;28;19909;-83
2020/12/10 10:54:21;;;;;;;;;;;3.50;95.40;;;;;;5014213;28;20517;-83
2020/12/10 10:56:47;;;;;;;85.68;37.83;;;3.50;95.40;;;;;;5013824;28;19905;-82
2020/12/10 10:59:12;;;;;;;;;;;3.50;95.40;;;;;;5014141;28;20659;-82
2020/12/10 11:01:38;;;;;;;63.28;30.35;;;3.50;95.40;;;;;;5015143;28;19976;-83
2020/12/10 11:04:04;;;;;;;67.53;32.92;;;3.50;95.50;;;;;;5015541;28;20030;-83
2020/12/10 11:06:29;;;;;;;;;;;3.50;95.30;;;;;;5014093;28;20512;-84
2020/12/10 11:08:55;;;;;;;58.08;29.73;;;3.60;95.30;;;;;;5014935;28;19906;-84
2020/12/10 11:11:21;;;;;;;;;;;3.50;95.30;;;;;;5014120;28;20083;-84
2020/12/10 11:13:47;;;;;;;60.85;31.48;;;3.60;95.20;;;;;;5013652;28;19967;-84
2020/12/10 11:16:14;;;;;;;;;;;3.60;95.20;;;;;;5014056;28;20441;-84
2020/12/10 11:18:44;;;;;;;74.40;32.38;;;3.50;95.20;;;;;;5013652;28;19906;-84
2020/12/10 11:21:10;;;;;;;76.95;37.22;;;3.60;95.20;;;;;;5013655;28;20034;-84
2020/12/10 11:23:38;;;;;;;96.97;47.70;;;3.50;95.10;;;;;;5013564;28;20128;-85
2020/12/10 11:26:03;;;;;;;88.72;37.00;;;3.50;95.20;;;;;;5014355;28;20022;-84
2020/12/10 11:28:29;;;;;;;;;;;3.60;95.30;;;;;;5012965;28;20034;-85
2020/12/10 11:30:56;;;;;;;65.63;34.30;;;3.60;95.20;;;;;;5014646;28;19906;-84
2020/12/10 11:33:22;;;;;;;69.40;34.10;;;3.50;95.10;;;;;;5013323;28;20037;-84
2020/12/10 11:35:47;;;;;;;;;;;3.40;95.10;;;;;;5013651;28;20026;-83
2020/12/10 11:38:13;;;;;;;93.88;39.60;;;3.50;95.20;;;;;;5013101;28;19913;-84
2020/12/10 11:40:39;;;;;;;;;;;3.50;95.20;;;;;;5013634;28;20022;-84
2020/12/10 11:43:05;;;;;;;73.65;37.72;;;3.60;95.30;;;;;;5013159;28;20524;-85
2020/12/10 11:45:30;;;;;;;;;;;3.60;95.30;;;;;;5013519;28;20033;-83
2020/12/10 11:47:58;;;;;;;79.90;37.30;;;3.60;95.20;;;;;;5013279;28;20249;-84
2020/12/10 11:50:23;;;;;;;87.28;43.35;;;3.60;95.10;;;;;;5013168;28;20018;-85
2020/12/10 11:52:49;;;;;;;;;;;3.50;95.10;;;;;;5013504;28;20407;-85
2020/12/10 11:55:16;;;;;;;65.18;34.58;;;3.50;95.10;;;;;;5013019;28;19905;-85
2020/12/10 11:57:42;;;;;;;76.30;37.65;;;3.50;95.10;;;;;;5014056;28;20049;-85
2020/12/10 12:00:09;;;;;;;86.18;41.90;;;3.50;95.10;;;;;;5013308;28;20029;-84
2020/12/10 12:02:35;;;;;;;81.47;43.40;;;3.50;95.10;;;;;;5014748;28;20046;-85
2020/12/10 12:05:01;;;;;;;;;;;3.50;95.10;;;;;;5013777;28;20065;-85
2020/12/10 12:07:27;;;;;;;53.53;28.08;;;3.50;95.00;;;;;;5013128;28;19921;-85
2020/12/10 12:09:52;;;;;;;;;;;3.50;94.90;;;;;;5013320;28;20037;-85
2020/12/10 12:12:18;;;;;;;47.03;25.67;;;3.50;94.90;;;;;;5012874;28;19959;-85
2020/12/10 12:14:43;;;;;;;;;;;3.40;94.70;;;;;;5013351;28;20508;-85
2020/12/10 12:17:09;;;;;;;48.50;25.83;;;3.40;94.70;;;;;;5013161;28;19905;-85
2020/12/10 12:19:34;;;;;;;;;;;3.40;95.20;;;;;;5013027;28;20075;-85
2020/12/10 12:22:01;;;;;;;84.85;48.70;;;3.40;94.90;;;;;;5013909;28;19959;-84
2020/12/10 12:24:27;;;;;;;65.30;38.80;;;3.40;94.80;;;;;;5012567;28;20065;-84
2020/12/10 12:26:52;;;;;;;;;;;3.50;94.90;;;;;;5013034;28;20115;-85
2020/12/10 12:29:18;;;;;;;89.90;52.38;;;3.50;94.80;;;;;;5012529;28;19905;-85
2020/12/10 12:31:43;;;;;;;;;;;3.50;94.80;;;;;;5012818;28;20034;-84
2020/12/10 12:34:09;;;;;;;45.38;26.75;;;3.50;94.80;;;;;;5012252;28;19917;-84
2020/12/10 12:36:35;;;;;;;;;;;3.50;94.80;;;;;;5012776;28;20061;-85
2020/12/10 12:39:02;;;;;;;41.88;24.05;;;3.50;94.80;;;;;;5012366;28;19932;-85
2020/12/10 12:41:29;;;;;;;52.95;31.52;;;3.50;94.70;;;;;;5012379;28;20030;-85
2020/12/10 12:43:55;;;;;;;77.10;45.60;;;3.50;94.70;;;;;;5012051;28;20030;-84
2020/12/10 12:46:22;;;;;;;43.45;26.00;;;3.50;94.70;;;;;;5012587;28;20038;-84
2020/12/10 12:48:51;;;;;;;40.72;24.27;;;3.50;94.60;;;;;;5013123;28;20105;-85
2020/12/10 12:51:19;;;;;;;54.60;30.52;;;3.40;94.50;;;;;;5013701;28;20076;-85
2020/12/10 12:53:45;;;;;;;59.55;33.20;;;3.40;94.50;;;;;;5012151;28;20088;-85
2020/12/10 12:56:11;;;;;;;59.00;32.45;;;3.40;94.60;;;;;;5012357;28;20042;-84
2020/12/10 12:58:39;;;;;;;55.75;29.02;;;3.30;94.50;;;;;;5012062;28;20058;-84
2020/12/10 13:01:05;;;;;;;74.30;36.95;;;3.40;94.60;;;;;;5013054;28;20061;-84
2020/12/10 13:03:30;;;;;;;;;;;3.40;94.80;;;;;;5012085;28;20066;-84
2020/12/10 13:05:56;;;;;;;65.40;31.88;;;3.40;94.80;;;;;;5011207;28;19916;-85
2020/12/10 13:08:21;;;;;;;;;;;3.40;94.80;;;;;;5010844;28;20094;-83
2020/12/10 13:10:47;;;;;;;46.90;23.10;;;3.50;94.90;;;;;;5012176;28;20361;-84
2020/12/10 13:13:15;;;;;;;;;;;3.40;94.50;;;;;;5010688;28;20042;-85
2020/12/10 13:15:41;;;;;;;53.13;29.85;;;3.50;94.60;;;;;;5012643;28;20424;-85